sensor_id;sensor_type;location;lat;lon;timestamp;P1;durP1;ratioP1;P2;durP2;ratioP2
20230;SDS011;10274;49.022;9.338;2023-03-24T00:01:49;1.23;;;0.83;;
20230;SDS011;10274;49.022;9.338;2023-03-24T00:04:16;1.10;;;1.00;;
20230;SDS011;10274;49.022;9.338;2023-03-24T00:06:43;1.23;;;0.70;;
20230;SDS011;10274;49.022;9.338;2023-03-24T00:09:13;2.30;;;0.87;;
20230;SDS011;10274;49.022;9.338;2023-03-24T00:11:40;1.27;;;1.00;;
20230;SDS011;10274;49.022;9.338;2023-03-24T00:14:08;0.67;;;0.67;;
20230;SDS011;10274;49.022;9.338;2023-03-24T00:16:36;1.53;;;1.43;;
20230;SDS011;10274;49.022;9.338;2023-03-24T00:19:06;0.93;;;0.87;;
20230;SDS011;10274;49.022;9.338;2023-03-24T00:21:33;1.20;;;1.10;;
20230;SDS011;10274;49.022;9.338;2023-03-24T00:24:01;1.10;;;1.00;;
20230;SDS011;10274;49.022;9.338;2023-03-24T00:26:31;1.10;;;0.90;;
20230;SDS011;10274;49.022;9.338;2023-03-24T00:28:58;1.13;;;1.00;;
20230;SDS011;10274;49.022;9.338;2023-03-24T00:31:27;1.40;;;0.90;;
20230;SDS011;10274;49.022;9.338;2023-03-24T00:33:54;1.20;;;1.10;;
20230;SDS011;10274;49.022;9.338;2023-03-24T00:36:22;0.67;;;0.67;;
20230;SDS011;10274;49.022;9.338;2023-03-24T00:38:49;1.60;;;1.07;;
20230;SDS011;10274;49.022;9.338;2023-03-24T00:41:17;0.60;;;0.60;;
20230;SDS011;10274;49.022;9.338;2023-03-24T00:43:45;1.07;;;1.03;;
20230;SDS011;10274;49.022;9.338;2023-03-24T00:46:12;2.37;;;1.17;;
20230;SDS011;10274;49.022;9.338;2023-03-24T00:48:52;1.10;;;0.90;;
20230;SDS011;10274;49.022;9.338;2023-03-24T00:51:22;1.00;;;0.90;;
20230;SDS011;10274;49.022;9.338;2023-03-24T00:53:49;1.00;;;0.90;;
20230;SDS011;10274;49.022;9.338;2023-03-24T00:56:21;1.00;;;0.90;;
20230;SDS011;10274;49.022;9.338;2023-03-24T00:58:49;1.00;;;0.80;;
20230;SDS011;10274;49.022;9.338;2023-03-24T01:01:16;1.20;;;0.87;;
20230;SDS011;10274;49.022;9.338;2023-03-24T01:03:46;1.40;;;1.10;;
20230;SDS011;10274;49.022;9.338;2023-03-24T01:06:16;0.90;;;0.90;;
20230;SDS011;10274;49.022;9.338;2023-03-24T01:08:46;1.37;;;0.97;;
20230;SDS011;10274;49.022;9.338;2023-03-24T01:11:13;0.80;;;0.80;;
20230;SDS011;10274;49.022;9.338;2023-03-24T01:13:42;2.47;;;1.40;;
20230;SDS011;10274;49.022;9.338;2023-03-24T01:16:08;1.00;;;1.00;;
20230;SDS011;10274;49.022;9.338;2023-03-24T01:18:35;0.80;;;0.73;;
20230;SDS011;10274;49.022;9.338;2023-03-24T01:21:05;0.70;;;0.70;;
20230;SDS011;10274;49.022;9.338;2023-03-24T01:23:33;1.17;;;0.57;;
20230;SDS011;10274;49.022;9.338;2023-03-24T01:26:03;1.17;;;1.07;;
20230;SDS011;10274;49.022;9.338;2023-03-24T01:28:31;0.70;;;0.70;;
20230;SDS011;10274;49.022;9.338;2023-03-24T01:31:04;1.30;;;1.00;;
20230;SDS011;10274;49.022;9.338;2023-03-24T01:33:33;1.00;;;0.83;;
20230;SDS011;10274;49.022;9.338;2023-03-24T01:35:59;1.13;;;1.03;;
20230;SDS011;10274;49.022;9.338;2023-03-24T01:38:26;0.90;;;0.87;;
20230;SDS011;10274;49.022;9.338;2023-03-24T01:40:54;1.60;;;1.03;;
20230;SDS011;10274;49.022;9.338;2023-03-24T01:43:22;0.83;;;0.77;;
20230;SDS011;10274;49.022;9.338;2023-03-24T01:45:59;1.77;;;1.23;;
20230;SDS011;10274;49.022;9.338;2023-03-24T01:48:32;0.80;;;0.77;;
20230;SDS011;10274;49.022;9.338;2023-03-24T01:51:04;1.07;;;0.87;;
20230;SDS011;10274;49.022;9.338;2023-03-24T01:53:42;1.77;;;0.80;;
20230;SDS011;10274;49.022;9.338;2023-03-24T01:56:13;1.53;;;1.00;;
20230;SDS011;10274;49.022;9.338;2023-03-24T01:58:42;0.80;;;0.80;;
20230;SDS011;10274;49.022;9.338;2023-03-24T02:01:13;2.13;;;1.20;;
20230;SDS011;10274;49.022;9.338;2023-03-24T02:03:41;3.67;;;0.60;;
20230;SDS011;10274;49.022;9.338;2023-03-24T02:06:09;1.40;;;1.03;;
20230;SDS011;10274;49.022;9.338;2023-03-24T02:08:38;1.37;;;0.80;;
20230;SDS011;10274;49.022;9.338;2023-03-24T02:11:07;1.27;;;1.00;;
20230;SDS011;10274;49.022;9.338;2023-03-24T02:13:35;1.63;;;1.53;;
20230;SDS011;10274;49.022;9.338;2023-03-24T02:16:13;1.40;;;1.10;;
20230;SDS011;10274;49.022;9.338;2023-03-24T02:18:51;0.67;;;0.67;;
20230;SDS011;10274;49.022;9.338;2023-03-24T02:27:41;0.97;;;0.87;;
20230;SDS011;10274;49.022;9.338;2023-03-24T02:30:29;1.03;;;0.93;;
20230;SDS011;10274;49.022;9.338;2023-03-24T02:33:25;0.70;;;0.70;;
20230;SDS011;10274;49.022;9.338;2023-03-24T02:36:21;1.23;;;0.77;;
20230;SDS011;10274;49.022;9.338;2023-03-24T02:42:15;0.77;;;0.70;;
20230;SDS011;10274;49.022;9.338;2023-03-24T02:44:53;0.57;;;0.57;;
20230;SDS011;10274;49.022;9.338;2023-03-24T02:47:29;0.60;;;0.60;;
20230;SDS011;10274;49.022;9.338;2023-03-24T02:50:08;0.73;;;0.73;;
20230;SDS011;10274;49.022;9.338;2023-03-24T02:52:44;0.70;;;0.70;;
20230;SDS011;10274;49.022;9.338;2023-03-24T02:55:17;0.93;;;0.90;;
20230;SDS011;10274;49.022;9.338;2023-03-24T02:57:48;0.63;;;0.63;;
20230;SDS011;10274;49.022;9.338;2023-03-24T03:00:21;1.60;;;0.90;;
20230;SDS011;10274;49.022;9.338;2023-03-24T03:02:54;0.77;;;0.77;;
20230;SDS011;10274;49.022;9.338;2023-03-24T03:05:25;1.50;;;0.87;;
20230;SDS011;10274;49.022;9.338;2023-03-24T03:07:56;0.87;;;0.83;;
20230;SDS011;10274;49.022;9.338;2023-03-24T03:10:28;0.77;;;0.77;;
20230;SDS011;10274;49.022;9.338;2023-03-24T03:12:57;0.70;;;0.70;;
20230;SDS011;10274;49.022;9.338;2023-03-24T03:15:29;1.03;;;0.67;;
20230;SDS011;10274;49.022;9.338;2023-03-24T03:18:02;0.60;;;0.60;;
20230;SDS011;10274;49.022;9.338;2023-03-24T03:20:34;1.07;;;0.80;;
20230;SDS011;10274;49.022;9.338;2023-03-24T03:23:07;0.67;;;0.50;;
20230;SDS011;10274;49.022;9.338;2023-03-24T03:25:38;0.70;;;0.70;;
20230;SDS011;10274;49.022;9.338;2023-03-24T03:28:10;0.63;;;0.60;;
20230;SDS011;10274;49.022;9.338;2023-03-24T03:30:42;0.63;;;0.43;;
20230;SDS011;10274;49.022;9.338;2023-03-24T03:33:12;1.07;;;0.80;;
20230;SDS011;10274;49.022;9.338;2023-03-24T03:35:49;0.83;;;0.83;;
20230;SDS011;10274;49.022;9.338;2023-03-24T03:38:21;1.00;;;0.90;;
20230;SDS011;10274;49.022;9.338;2023-03-24T03:40:55;1.23;;;1.03;;
20230;SDS011;10274;49.022;9.338;2023-03-24T03:43:24;1.43;;;0.87;;
20230;SDS011;10274;49.022;9.338;2023-03-24T03:45:52;1.13;;;0.73;;
20230;SDS011;10274;49.022;9.338;2023-03-24T03:48:20;0.60;;;0.60;;
20230;SDS011;10274;49.022;9.338;2023-03-24T03:50:50;0.80;;;0.80;;
20230;SDS011;10274;49.022;9.338;2023-03-24T03:53:18;0.63;;;0.63;;
20230;SDS011;10274;49.022;9.338;2023-03-24T03:55:48;0.77;;;0.77;;
20230;SDS011;10274;49.022;9.338;2023-03-24T03:58:17;0.90;;;0.90;;
20230;SDS011;10274;49.022;9.338;2023-03-24T04:00:44;0.83;;;0.83;;
20230;SDS011;10274;49.022;9.338;2023-03-24T04:03:18;0.53;;;0.53;;
20230;SDS011;10274;49.022;9.338;2023-03-24T04:06:03;0.53;;;0.53;;
20230;SDS011;10274;49.022;9.338;2023-03-24T04:08:41;1.03;;;0.77;;
20230;SDS011;10274;49.022;9.338;2023-03-24T04:14:17;1.00;;;0.80;;
20230;SDS011;10274;49.022;9.338;2023-03-24T04:16:57;0.73;;;0.63;;
20230;SDS011;10274;49.022;9.338;2023-03-24T04:19:32;0.87;;;0.87;;
20230;SDS011;10274;49.022;9.338;2023-03-24T04:22:10;0.50;;;0.50;;
20230;SDS011;10274;49.022;9.338;2023-03-24T04:24:49;0.60;;;0.60;;
20230;SDS011;10274;49.022;9.338;2023-03-24T04:27:20;1.43;;;0.70;;
20230;SDS011;10274;49.022;9.338;2023-03-24T04:29:55;0.50;;;0.50;;
20230;SDS011;10274;49.022;9.338;2023-03-24T04:32:34;0.63;;;0.60;;
20230;SDS011;10274;49.022;9.338;2023-03-24T04:35:08;0.80;;;0.80;;
20230;SDS011;10274;49.022;9.338;2023-03-24T04:37:38;0.50;;;0.50;;
20230;SDS011;10274;49.022;9.338;2023-03-24T04:40:07;0.70;;;0.70;;
20230;SDS011;10274;49.022;9.338;2023-03-24T04:42:36;0.73;;;0.50;;
20230;SDS011;10274;49.022;9.338;2023-03-24T04:45:07;0.77;;;0.60;;
20230;SDS011;10274;49.022;9.338;2023-03-24T04:47:37;0.57;;;0.57;;
20230;SDS011;10274;49.022;9.338;2023-03-24T04:50:10;0.90;;;0.90;;
20230;SDS011;10274;49.022;9.338;2023-03-24T04:52:38;0.83;;;0.70;;
20230;SDS011;10274;49.022;9.338;2023-03-24T04:55:14;0.47;;;0.47;;
20230;SDS011;10274;49.022;9.338;2023-03-24T04:57:56;0.90;;;0.60;;
20230;SDS011;10274;49.022;9.338;2023-03-24T05:00:24;0.70;;;0.70;;
20230;SDS011;10274;49.022;9.338;2023-03-24T05:02:51;1.00;;;0.90;;
20230;SDS011;10274;49.022;9.338;2023-03-24T05:05:18;0.77;;;0.60;;
20230;SDS011;10274;49.022;9.338;2023-03-24T05:07:45;0.60;;;0.53;;
20230;SDS011;10274;49.022;9.338;2023-03-24T05:10:12;1.00;;;0.83;;
20230;SDS011;10274;49.022;9.338;2023-03-24T05:12:38;0.60;;;0.60;;
20230;SDS011;10274;49.022;9.338;2023-03-24T05:15:05;1.47;;;0.87;;
20230;SDS011;10274;49.022;9.338;2023-03-24T05:17:34;0.90;;;0.60;;
20230;SDS011;10274;49.022;9.338;2023-03-24T05:20:01;0.73;;;0.73;;
20230;SDS011;10274;49.022;9.338;2023-03-24T05:22:30;0.63;;;0.63;;
20230;SDS011;10274;49.022;9.338;2023-03-24T05:24:57;0.73;;;0.70;;
20230;SDS011;10274;49.022;9.338;2023-03-24T05:27:24;0.87;;;0.80;;
20230;SDS011;10274;49.022;9.338;2023-03-24T05:29:50;1.10;;;1.03;;
20230;SDS011;10274;49.022;9.338;2023-03-24T05:32:17;1.30;;;0.87;;
20230;SDS011;10274;49.022;9.338;2023-03-24T05:34:45;0.73;;;0.73;;
20230;SDS011;10274;49.022;9.338;2023-03-24T05:37:13;0.77;;;0.77;;
20230;SDS011;10274;49.022;9.338;2023-03-24T05:39:41;0.70;;;0.70;;
20230;SDS011;10274;49.022;9.338;2023-03-24T05:42:08;1.00;;;0.90;;
20230;SDS011;10274;49.022;9.338;2023-03-24T05:44:35;0.77;;;0.73;;
20230;SDS011;10274;49.022;9.338;2023-03-24T05:47:02;1.20;;;1.10;;
20230;SDS011;10274;49.022;9.338;2023-03-24T05:49:29;1.07;;;0.90;;
20230;SDS011;10274;49.022;9.338;2023-03-24T05:51:57;1.20;;;0.83;;
20230;SDS011;10274;49.022;9.338;2023-03-24T05:56:52;1.37;;;1.03;;
20230;SDS011;10274;49.022;9.338;2023-03-24T05:59:18;1.27;;;0.93;;
20230;SDS011;10274;49.022;9.338;2023-03-24T06:01:46;2.37;;;0.70;;
20230;SDS011;10274;49.022;9.338;2023-03-24T06:04:13;0.80;;;0.80;;
20230;SDS011;10274;49.022;9.338;2023-03-24T06:06:40;1.07;;;0.97;;
20230;SDS011;10274;49.022;9.338;2023-03-24T06:09:10;0.97;;;0.87;;
20230;SDS011;10274;49.022;9.338;2023-03-24T06:11:38;0.87;;;0.83;;
20230;SDS011;10274;49.022;9.338;2023-03-24T06:14:05;1.00;;;1.00;;
20230;SDS011;10274;49.022;9.338;2023-03-24T06:16:32;1.03;;;0.93;;
20230;SDS011;10274;49.022;9.338;2023-03-24T06:19:03;1.07;;;0.97;;
20230;SDS011;10274;49.022;9.338;2023-03-24T06:21:31;0.70;;;0.70;;
20230;SDS011;10274;49.022;9.338;2023-03-24T06:23:57;0.67;;;0.53;;
20230;SDS011;10274;49.022;9.338;2023-03-24T06:26:26;1.00;;;0.90;;
20230;SDS011;10274;49.022;9.338;2023-03-24T06:28:54;0.87;;;0.83;;
20230;SDS011;10274;49.022;9.338;2023-03-24T06:31:22;0.97;;;0.87;;
20230;SDS011;10274;49.022;9.338;2023-03-24T06:33:49;0.73;;;0.73;;
20230;SDS011;10274;49.022;9.338;2023-03-24T06:36:16;0.63;;;0.63;;
20230;SDS011;10274;49.022;9.338;2023-03-24T06:38:43;1.20;;;1.07;;
20230;SDS011;10274;49.022;9.338;2023-03-24T06:41:10;1.10;;;1.00;;
20230;SDS011;10274;49.022;9.338;2023-03-24T06:43:38;1.80;;;1.07;;
20230;SDS011;10274;49.022;9.338;2023-03-24T06:46:05;1.03;;;0.97;;
20230;SDS011;10274;49.022;9.338;2023-03-24T06:48:33;0.77;;;0.77;;
20230;SDS011;10274;49.022;9.338;2023-03-24T06:51:00;1.20;;;0.90;;
20230;SDS011;10274;49.022;9.338;2023-03-24T06:53:27;1.07;;;0.80;;
20230;SDS011;10274;49.022;9.338;2023-03-24T06:55:54;1.43;;;1.00;;
20230;SDS011;10274;49.022;9.338;2023-03-24T06:58:21;1.37;;;1.10;;
20230;SDS011;10274;49.022;9.338;2023-03-24T07:00:49;2.13;;;1.50;;
20230;SDS011;10274;49.022;9.338;2023-03-24T07:03:15;1.40;;;1.13;;
20230;SDS011;10274;49.022;9.338;2023-03-24T07:05:43;3.40;;;1.20;;
20230;SDS011;10274;49.022;9.338;2023-03-24T07:08:10;2.73;;;1.40;;
20230;SDS011;10274;49.022;9.338;2023-03-24T07:10:38;0.90;;;0.90;;
20230;SDS011;10274;49.022;9.338;2023-03-24T07:13:06;1.10;;;1.00;;
20230;SDS011;10274;49.022;9.338;2023-03-24T07:15:33;1.77;;;1.50;;
20230;SDS011;10274;49.022;9.338;2023-03-24T07:18:02;1.40;;;1.30;;
20230;SDS011;10274;49.022;9.338;2023-03-24T07:20:28;1.40;;;1.30;;
20230;SDS011;10274;49.022;9.338;2023-03-24T07:22:56;1.50;;;1.20;;
20230;SDS011;10274;49.022;9.338;2023-03-24T07:25:22;1.30;;;1.20;;
20230;SDS011;10274;49.022;9.338;2023-03-24T07:27:52;1.47;;;1.13;;
20230;SDS011;10274;49.022;9.338;2023-03-24T07:30:19;1.30;;;1.20;;
20230;SDS011;10274;49.022;9.338;2023-03-24T07:32:45;1.47;;;1.20;;
20230;SDS011;10274;49.022;9.338;2023-03-24T07:35:14;1.40;;;1.30;;
20230;SDS011;10274;49.022;9.338;2023-03-24T07:37:43;1.77;;;1.40;;
20230;SDS011;10274;49.022;9.338;2023-03-24T07:40:10;1.10;;;1.03;;
20230;SDS011;10274;49.022;9.338;2023-03-24T07:42:40;1.30;;;1.17;;
20230;SDS011;10274;49.022;9.338;2023-03-24T07:45:08;1.03;;;1.03;;
20230;SDS011;10274;49.022;9.338;2023-03-24T07:47:36;1.07;;;1.00;;
20230;SDS011;10274;49.022;9.338;2023-03-24T07:50:03;1.53;;;1.00;;
20230;SDS011;10274;49.022;9.338;2023-03-24T07:52:35;1.40;;;1.27;;
20230;SDS011;10274;49.022;9.338;2023-03-24T07:55:02;1.27;;;1.07;;
20230;SDS011;10274;49.022;9.338;2023-03-24T07:57:29;1.17;;;0.90;;
20230;SDS011;10274;49.022;9.338;2023-03-24T07:59:56;2.00;;;1.50;;
20230;SDS011;10274;49.022;9.338;2023-03-24T08:02:22;1.20;;;1.10;;
20230;SDS011;10274;49.022;9.338;2023-03-24T08:04:49;1.40;;;1.30;;
20230;SDS011;10274;49.022;9.338;2023-03-24T08:07:17;1.13;;;1.03;;
20230;SDS011;10274;49.022;9.338;2023-03-24T08:09:45;1.97;;;1.17;;
20230;SDS011;10274;49.022;9.338;2023-03-24T08:12:12;2.43;;;1.60;;
20230;SDS011;10274;49.022;9.338;2023-03-24T08:14:39;1.00;;;0.90;;
20230;SDS011;10274;49.022;9.338;2023-03-24T08:17:05;1.43;;;1.20;;
20230;SDS011;10274;49.022;9.338;2023-03-24T08:19:33;1.20;;;1.10;;
20230;SDS011;10274;49.022;9.338;2023-03-24T08:22:00;1.83;;;1.07;;
20230;SDS011;10274;49.022;9.338;2023-03-24T08:24:27;2.43;;;1.40;;
20230;SDS011;10274;49.022;9.338;2023-03-24T08:26:55;0.73;;;0.70;;
20230;SDS011;10274;49.022;9.338;2023-03-24T08:29:23;0.87;;;0.83;;
20230;SDS011;10274;49.022;9.338;2023-03-24T08:31:50;1.03;;;0.90;;
20230;SDS011;10274;49.022;9.338;2023-03-24T08:34:16;1.50;;;1.33;;
20230;SDS011;10274;49.022;9.338;2023-03-24T08:36:43;1.67;;;1.53;;
20230;SDS011;10274;49.022;9.338;2023-03-24T08:39:10;1.40;;;1.07;;
20230;SDS011;10274;49.022;9.338;2023-03-24T08:41:36;1.20;;;1.10;;
20230;SDS011;10274;49.022;9.338;2023-03-24T08:44:05;1.40;;;1.30;;
20230;SDS011;10274;49.022;9.338;2023-03-24T08:46:32;1.43;;;1.03;;
20230;SDS011;10274;49.022;9.338;2023-03-24T08:48:59;2.20;;;1.17;;
20230;SDS011;10274;49.022;9.338;2023-03-24T08:51:27;1.47;;;1.37;;
20230;SDS011;10274;49.022;9.338;2023-03-24T08:53:53;2.47;;;1.40;;
20230;SDS011;10274;49.022;9.338;2023-03-24T08:56:20;1.00;;;0.90;;
20230;SDS011;10274;49.022;9.338;2023-03-24T08:58:48;1.30;;;0.90;;
20230;SDS011;10274;49.022;9.338;2023-03-24T09:01:19;0.90;;;0.87;;
20230;SDS011;10274;49.022;9.338;2023-03-24T09:03:46;1.00;;;0.90;;
20230;SDS011;10274;49.022;9.338;2023-03-24T09:06:14;1.17;;;1.07;;
20230;SDS011;10274;49.022;9.338;2023-03-24T09:08:41;1.03;;;0.93;;
20230;SDS011;10274;49.022;9.338;2023-03-24T09:11:13;2.17;;;1.00;;
20230;SDS011;10274;49.022;9.338;2023-03-24T09:13:41;1.63;;;1.23;;
20230;SDS011;10274;49.022;9.338;2023-03-24T09:16:08;1.13;;;1.03;;
20230;SDS011;10274;49.022;9.338;2023-03-24T09:18:36;1.13;;;1.03;;
20230;SDS011;10274;49.022;9.338;2023-03-24T09:21:04;0.70;;;0.60;;
20230;SDS011;10274;49.022;9.338;2023-03-24T09:23:31;2.53;;;1.03;;
20230;SDS011;10274;49.022;9.338;2023-03-24T09:25:58;1.10;;;1.00;;
20230;SDS011;10274;49.022;9.338;2023-03-24T09:28:25;3.37;;;0.90;;
20230;SDS011;10274;49.022;9.338;2023-03-24T09:30:55;1.00;;;0.90;;
20230;SDS011;10274;49.022;9.338;2023-03-24T09:33:23;2.93;;;0.97;;
20230;SDS011;10274;49.022;9.338;2023-03-24T09:35:53;1.30;;;1.20;;
20230;SDS011;10274;49.022;9.338;2023-03-24T09:38:20;1.10;;;1.00;;
20230;SDS011;10274;49.022;9.338;2023-03-24T09:40:48;1.33;;;0.90;;
20230;SDS011;10274;49.022;9.338;2023-03-24T09:43:21;2.10;;;0.83;;
20230;SDS011;10274;49.022;9.338;2023-03-24T09:45:53;1.87;;;1.00;;
20230;SDS011;10274;49.022;9.338;2023-03-24T09:48:26;0.90;;;0.90;;
20230;SDS011;10274;49.022;9.338;2023-03-24T09:51:01;0.50;;;0.50;;
20230;SDS011;10274;49.022;9.338;2023-03-24T09:53:31;1.00;;;0.70;;
20230;SDS011;10274;49.022;9.338;2023-03-24T09:56:07;1.07;;;0.97;;
20230;SDS011;10274;49.022;9.338;2023-03-24T09:58:37;1.47;;;1.00;;
20230;SDS011;10274;49.022;9.338;2023-03-24T10:01:07;0.93;;;0.93;;
20230;SDS011;10274;49.022;9.338;2023-03-24T10:03:37;0.60;;;0.60;;
20230;SDS011;10274;49.022;9.338;2023-03-24T10:06:06;0.87;;;0.87;;
20230;SDS011;10274;49.022;9.338;2023-03-24T10:08:35;0.80;;;0.80;;
20230;SDS011;10274;49.022;9.338;2023-03-24T10:11:05;0.97;;;0.87;;
20230;SDS011;10274;49.022;9.338;2023-03-24T10:13:42;2.43;;;1.00;;
20230;SDS011;10274;49.022;9.338;2023-03-24T10:16:19;0.80;;;0.80;;
20230;SDS011;10274;49.022;9.338;2023-03-24T10:18:52;0.87;;;0.80;;
20230;SDS011;10274;49.022;9.338;2023-03-24T10:21:25;0.67;;;0.67;;
20230;SDS011;10274;49.022;9.338;2023-03-24T10:23:53;0.60;;;0.57;;
20230;SDS011;10274;49.022;9.338;2023-03-24T10:26:30;0.70;;;0.67;;
20230;SDS011;10274;49.022;9.338;2023-03-24T10:29:08;1.10;;;0.90;;
20230;SDS011;10274;49.022;9.338;2023-03-24T10:31:46;0.43;;;0.43;;
20230;SDS011;10274;49.022;9.338;2023-03-24T10:34:15;0.50;;;0.50;;
20230;SDS011;10274;49.022;9.338;2023-03-24T10:36:44;0.47;;;0.47;;
20230;SDS011;10274;49.022;9.338;2023-03-24T10:39:12;0.47;;;0.47;;
20230;SDS011;10274;49.022;9.338;2023-03-24T10:41:42;0.70;;;0.67;;
20230;SDS011;10274;49.022;9.338;2023-03-24T10:44:10;0.77;;;0.77;;
20230;SDS011;10274;49.022;9.338;2023-03-24T10:46:39;0.60;;;0.60;;
20230;SDS011;10274;49.022;9.338;2023-03-24T10:49:13;0.63;;;0.63;;
20230;SDS011;10274;49.022;9.338;2023-03-24T10:51:44;0.60;;;0.60;;
20230;SDS011;10274;49.022;9.338;2023-03-24T10:54:15;0.70;;;0.50;;
20230;SDS011;10274;49.022;9.338;2023-03-24T10:56:43;0.70;;;0.50;;
20230;SDS011;10274;49.022;9.338;2023-03-24T10:59:18;0.53;;;0.53;;
20230;SDS011;10274;49.022;9.338;2023-03-24T11:01:49;0.50;;;0.50;;
20230;SDS011;10274;49.022;9.338;2023-03-24T11:04:20;0.73;;;0.70;;
20230;SDS011;10274;49.022;9.338;2023-03-24T11:07:03;0.83;;;0.80;;
20230;SDS011;10274;49.022;9.338;2023-03-24T11:09:38;0.50;;;0.50;;
20230;SDS011;10274;49.022;9.338;2023-03-24T11:12:10;0.33;;;0.33;;
20230;SDS011;10274;49.022;9.338;2023-03-24T11:14:47;0.43;;;0.43;;
20230;SDS011;10274;49.022;9.338;2023-03-24T11:17:14;1.37;;;0.60;;
20230;SDS011;10274;49.022;9.338;2023-03-24T11:19:48;0.73;;;0.67;;
20230;SDS011;10274;49.022;9.338;2023-03-24T11:22:18;0.27;;;0.27;;
20230;SDS011;10274;49.022;9.338;2023-03-24T11:24:46;0.70;;;0.70;;
20230;SDS011;10274;49.022;9.338;2023-03-24T11:27:15;0.40;;;0.40;;
20230;SDS011;10274;49.022;9.338;2023-03-24T11:29:42;0.33;;;0.33;;
20230;SDS011;10274;49.022;9.338;2023-03-24T11:32:15;0.60;;;0.60;;
20230;SDS011;10274;49.022;9.338;2023-03-24T11:34:46;0.30;;;0.30;;
20230;SDS011;10274;49.022;9.338;2023-03-24T11:37:18;0.60;;;0.60;;
20230;SDS011;10274;49.022;9.338;2023-03-24T11:40:04;0.23;;;0.23;;
20230;SDS011;10274;49.022;9.338;2023-03-24T11:42:46;0.53;;;0.53;;
20230;SDS011;10274;49.022;9.338;2023-03-24T11:45:19;0.60;;;0.40;;
20230;SDS011;10274;49.022;9.338;2023-03-24T11:47:48;0.37;;;0.37;;
20230;SDS011;10274;49.022;9.338;2023-03-24T11:50:17;1.00;;;0.93;;
20230;SDS011;10274;49.022;9.338;2023-03-24T11:52:49;0.70;;;0.70;;
20230;SDS011;10274;49.022;9.338;2023-03-24T11:55:21;0.30;;;0.30;;
20230;SDS011;10274;49.022;9.338;2023-03-24T11:57:55;0.70;;;0.60;;
20230;SDS011;10274;49.022;9.338;2023-03-24T12:00:27;0.83;;;0.83;;
20230;SDS011;10274;49.022;9.338;2023-03-24T12:03:10;0.30;;;0.30;;
20230;SDS011;10274;49.022;9.338;2023-03-24T12:05:57;0.30;;;0.30;;
20230;SDS011;10274;49.022;9.338;2023-03-24T12:08:39;0.20;;;0.20;;
20230;SDS011;10274;49.022;9.338;2023-03-24T12:11:15;0.40;;;0.40;;
20230;SDS011;10274;49.022;9.338;2023-03-24T12:13:50;0.43;;;0.43;;
20230;SDS011;10274;49.022;9.338;2023-03-24T12:16:24;0.50;;;0.40;;
20230;SDS011;10274;49.022;9.338;2023-03-24T12:19:07;0.40;;;0.40;;
20230;SDS011;10274;49.022;9.338;2023-03-24T12:21:51;0.40;;;0.40;;
20230;SDS011;10274;49.022;9.338;2023-03-24T12:24:31;0.60;;;0.40;;
20230;SDS011;10274;49.022;9.338;2023-03-24T12:27:15;0.20;;;0.20;;
20230;SDS011;10274;49.022;9.338;2023-03-24T12:29:52;0.30;;;0.30;;
20230;SDS011;10274;49.022;9.338;2023-03-24T12:32:43;0.40;;;0.40;;
20230;SDS011;10274;49.022;9.338;2023-03-24T12:41:18;0.20;;;0.20;;
20230;SDS011;10274;49.022;9.338;2023-03-24T12:43:58;0.33;;;0.23;;
20230;SDS011;10274;49.022;9.338;2023-03-24T12:46:36;0.20;;;0.20;;
20230;SDS011;10274;49.022;9.338;2023-03-24T12:52:19;0.50;;;0.50;;
20230;SDS011;10274;49.022;9.338;2023-03-24T12:54:55;0.20;;;0.20;;
20230;SDS011;10274;49.022;9.338;2023-03-24T12:57:31;0.30;;;0.20;;
20230;SDS011;10274;49.022;9.338;2023-03-24T13:00:02;0.30;;;0.20;;
20230;SDS011;10274;49.022;9.338;2023-03-24T13:02:37;0.10;;;0.10;;
20230;SDS011;10274;49.022;9.338;2023-03-24T13:05:13;1.30;;;0.43;;
20230;SDS011;10274;49.022;9.338;2023-03-24T13:07:43;1.20;;;0.30;;
20230;SDS011;10274;49.022;9.338;2023-03-24T13:10:18;0.20;;;0.20;;
20230;SDS011;10274;49.022;9.338;2023-03-24T13:12:52;0.10;;;0.10;;
20230;SDS011;10274;49.022;9.338;2023-03-24T13:15:23;0.20;;;0.17;;
20230;SDS011;10274;49.022;9.338;2023-03-24T13:17:58;0.30;;;0.30;;
20230;SDS011;10274;49.022;9.338;2023-03-24T13:20:32;0.20;;;0.20;;
20230;SDS011;10274;49.022;9.338;2023-03-24T13:23:02;0.20;;;0.20;;
20230;SDS011;10274;49.022;9.338;2023-03-24T13:25:36;0.20;;;0.20;;
20230;SDS011;10274;49.022;9.338;2023-03-24T13:28:14;0.10;;;0.10;;
20230;SDS011;10274;49.022;9.338;2023-03-24T13:30:47;0.67;;;0.20;;
20230;SDS011;10274;49.022;9.338;2023-03-24T13:33:16;0.37;;;0.30;;
20230;SDS011;10274;49.022;9.338;2023-03-24T13:35:56;0.30;;;0.30;;
20230;SDS011;10274;49.022;9.338;2023-03-24T13:38:33;0.40;;;0.40;;
20230;SDS011;10274;49.022;9.338;2023-03-24T13:41:02;0.23;;;0.23;;
20230;SDS011;10274;49.022;9.338;2023-03-24T13:43:32;0.20;;;0.20;;
20230;SDS011;10274;49.022;9.338;2023-03-24T13:46:00;0.23;;;0.13;;
20230;SDS011;10274;49.022;9.338;2023-03-24T13:48:30;0.30;;;0.30;;
20230;SDS011;10274;49.022;9.338;2023-03-24T13:51:02;0.37;;;0.30;;
20230;SDS011;10274;49.022;9.338;2023-03-24T13:53:34;0.17;;;0.17;;
20230;SDS011;10274;49.022;9.338;2023-03-24T13:56:04;0.43;;;0.37;;
20230;SDS011;10274;49.022;9.338;2023-03-24T13:58:45;0.60;;;0.60;;
20230;SDS011;10274;49.022;9.338;2023-03-24T14:01:30;0.30;;;0.30;;
20230;SDS011;10274;49.022;9.338;2023-03-24T14:06:47;1.20;;;0.90;;
20230;SDS011;10274;49.022;9.338;2023-03-24T14:09:18;0.77;;;0.40;;
20230;SDS011;10274;49.022;9.338;2023-03-24T14:14:34;0.17;;;0.17;;
20230;SDS011;10274;49.022;9.338;2023-03-24T14:17:21;0.40;;;0.40;;
20230;SDS011;10274;49.022;9.338;2023-03-24T14:20:09;0.63;;;0.50;;
20230;SDS011;10274;49.022;9.338;2023-03-24T14:22:38;0.30;;;0.30;;
20230;SDS011;10274;49.022;9.338;2023-03-24T14:25:16;0.30;;;0.30;;
20230;SDS011;10274;49.022;9.338;2023-03-24T14:27:48;0.63;;;0.60;;
20230;SDS011;10274;49.022;9.338;2023-03-24T14:30:21;1.00;;;0.60;;
20230;SDS011;10274;49.022;9.338;2023-03-24T14:32:50;0.77;;;0.60;;
20230;SDS011;10274;49.022;9.338;2023-03-24T14:38:02;0.47;;;0.47;;
20230;SDS011;10274;49.022;9.338;2023-03-24T14:40:32;0.47;;;0.47;;
20230;SDS011;10274;49.022;9.338;2023-03-24T14:43:11;0.43;;;0.43;;
20230;SDS011;10274;49.022;9.338;2023-03-24T14:48:34;0.43;;;0.30;;
20230;SDS011;10274;49.022;9.338;2023-03-24T14:51:07;0.80;;;0.60;;
20230;SDS011;10274;49.022;9.338;2023-03-24T14:53:45;0.60;;;0.60;;
20230;SDS011;10274;49.022;9.338;2023-03-24T14:56:12;0.50;;;0.50;;
20230;SDS011;10274;49.022;9.338;2023-03-24T14:58:42;0.40;;;0.40;;
20230;SDS011;10274;49.022;9.338;2023-03-24T15:01:15;1.10;;;0.60;;
20230;SDS011;10274;49.022;9.338;2023-03-24T15:03:43;0.97;;;0.40;;
20230;SDS011;10274;49.022;9.338;2023-03-24T15:06:21;0.80;;;0.80;;
20230;SDS011;10274;49.022;9.338;2023-03-24T15:08:49;0.33;;;0.33;;
20230;SDS011;10274;49.022;9.338;2023-03-24T15:11:18;0.57;;;0.50;;
20230;SDS011;10274;49.022;9.338;2023-03-24T15:13:47;0.50;;;0.50;;
20230;SDS011;10274;49.022;9.338;2023-03-24T15:16:18;0.57;;;0.40;;
20230;SDS011;10274;49.022;9.338;2023-03-24T15:18:48;0.50;;;0.50;;
20230;SDS011;10274;49.022;9.338;2023-03-24T15:21:21;2.00;;;0.70;;
20230;SDS011;10274;49.022;9.338;2023-03-24T15:23:53;0.60;;;0.60;;
20230;SDS011;10274;49.022;9.338;2023-03-24T15:26:21;0.93;;;0.67;;
20230;SDS011;10274;49.022;9.338;2023-03-24T15:28:55;0.57;;;0.57;;
20230;SDS011;10274;49.022;9.338;2023-03-24T15:31:25;1.27;;;0.70;;
20230;SDS011;10274;49.022;9.338;2023-03-24T15:34:00;1.53;;;0.87;;
20230;SDS011;10274;49.022;9.338;2023-03-24T15:36:37;0.40;;;0.40;;
20230;SDS011;10274;49.022;9.338;2023-03-24T15:39:15;0.60;;;0.50;;
20230;SDS011;10274;49.022;9.338;2023-03-24T15:41:43;0.70;;;0.70;;
20230;SDS011;10274;49.022;9.338;2023-03-24T15:44:13;0.57;;;0.53;;
20230;SDS011;10274;49.022;9.338;2023-03-24T15:46:46;0.40;;;0.40;;